Time;durP1;ratioP1;P1;durP2;ratioP2;P2;SDS_P1;SDS_P2;PMS_P1;PMS_P2;Temp;Humidity;BMP_temperature;BMP_pressure;BME280_temperature;BME280_humidity;BME280_pressure;Samples;Min_cycle;Max_cycle;Signal;HPM_P1;HPM_P2
2022/02/24 00:01:03;;;;;;;40.90;23.00;;;;;;;;;;4857988;29;20089;-74
2022/02/24 00:03:30;;;;;;;19.98;11.20;;;;;;;;;;4866176;29;20022;-75
2022/02/24 00:05:56;;;;;;;17.77;8.85;;;;;;;;;;4866590;29;20033;-75
2022/02/24 00:08:22;;;;;;;15.57;7.05;;;;;;;;;;4857720;29;20065;-75
2022/02/24 00:10:48;;;;;;;12.85;5.13;;;;;;;;;;4857341;29;20029;-75
2022/02/24 00:13:15;;;;;;;25.02;12.57;;;;;;;;;;4857791;29;20040;-74
2022/02/24 00:15:42;;;;;;;34.67;15.40;;;;;;;;;;4857312;29;20045;-75
2022/02/24 00:18:08;;;;;;;26.42;12.93;;;;;;;;;;4857701;29;20040;-75
2022/02/24 00:20:34;;;;;;;24.95;11.57;;;;;;;;;;4865817;29;20661;-74
2022/02/24 00:23:00;;;;;;;24.98;12.45;;;;;;;;;;4857513;29;20041;-75
2022/02/24 00:25:26;;;;;;;22.85;9.13;;;;;;;;;;4857251;29;20037;-74
2022/02/24 00:27:52;;;;;;;13.90;6.00;;;;;;;;;;4861632;29;20041;-75
2022/02/24 00:30:18;;;;;;;11.05;4.53;;;;;;;;;;4870014;29;20383;-75
2022/02/24 00:32:44;;;;;;;10.60;4.35;;;;;;;;;;4858695;29;20045;-74
2022/02/24 00:35:13;;;;;;;11.25;2.90;;;;;;;;;;4864739;29;20048;-75
2022/02/24 00:37:41;;;;;;;9.57;2.60;;;;;;;;;;4857381;29;20101;-75
2022/02/24 00:40:07;;;;;;;7.57;2.65;;;;;;;;;;4872536;29;20036;-75
2022/02/24 00:42:33;;;;;;;9.25;3.42;;;;;;;;;;4864847;29;20029;-75
2022/02/24 00:44:59;;;;;;;8.43;3.08;;;;;;;;;;4857128;29;20757;-75
2022/02/24 00:47:25;;;;;;;9.90;3.22;;;;;;;;;;4856888;29;20512;-75
2022/02/24 00:49:51;;;;;;;10.52;4.03;;;;;;;;;;4857586;29;20124;-75
2022/02/24 00:52:17;;;;;;;7.72;2.83;;;;;;;;;;4856668;29;20093;-75
2022/02/24 00:54:45;;;;;;;11.18;3.20;;;;;;;;;;4862522;29;20468;-75
2022/02/24 00:57:12;;;;;;;8.20;3.50;;;;;;;;;;4876087;29;20040;-76
2022/02/24 00:59:38;;;;;;;7.63;3.00;;;;;;;;;;4857639;29;20042;-75
2022/02/24 01:02:04;;;;;;;8.00;3.13;;;;;;;;;;4864886;29;20033;-75
2022/02/24 01:04:30;;;;;;;8.82;3.25;;;;;;;;;;4859906;29;20069;-75
2022/02/24 01:06:56;;;;;;;9.43;2.95;;;;;;;;;;4872807;29;20068;-75
2022/02/24 01:09:22;;;;;;;7.60;3.13;;;;;;;;;;4862588;29;20109;-75
2022/02/24 01:11:49;;;;;;;7.60;2.92;;;;;;;;;;4857331;29;20567;-75
2022/02/24 01:14:15;;;;;;;7.85;2.90;;;;;;;;;;4867450;29;20048;-75
2022/02/24 01:16:41;;;;;;;9.85;4.28;;;;;;;;;;4857713;29;20049;-75
2022/02/24 01:19:07;;;;;;;10.32;4.20;;;;;;;;;;4856596;29;20033;-75
2022/02/24 01:21:34;;;;;;;8.73;4.40;;;;;;;;;;4869311;29;20037;-75
2022/02/24 01:24:01;;;;;;;7.45;3.47;;;;;;;;;;4869280;29;20037;-75
2022/02/24 01:26:27;;;;;;;7.70;3.20;;;;;;;;;;4857026;29;20525;-74
2022/02/24 01:28:53;;;;;;;9.85;3.80;;;;;;;;;;4856277;29;20033;-74
2022/02/24 01:31:19;;;;;;;13.15;3.10;;;;;;;;;;4856739;29;20049;-74
2022/02/24 01:33:45;;;;;;;9.48;2.45;;;;;;;;;;4857469;29;20108;-74
2022/02/24 01:36:11;;;;;;;9.57;2.47;;;;;;;;;;4873825;29;20411;-74
2022/02/24 01:38:38;;;;;;;10.80;4.00;;;;;;;;;;4856713;29;20116;-75
2022/02/24 01:41:04;;;;;;;10.75;5.03;;;;;;;;;;4859779;29;20388;-74
2022/02/24 01:43:30;;;;;;;13.25;5.60;;;;;;;;;;4857562;29;20025;-75
2022/02/24 01:45:56;;;;;;;8.48;4.22;;;;;;;;;;4857770;29;20045;-75
2022/02/24 01:48:22;;;;;;;14.25;7.40;;;;;;;;;;4860126;29;20146;-75
2022/02/24 01:50:49;;;;;;;17.67;10.40;;;;;;;;;;4872261;29;20137;-75
2022/02/24 01:53:15;;;;;;;8.57;3.75;;;;;;;;;;4878747;29;20153;-75
2022/02/24 01:55:41;;;;;;;6.10;1.67;;;;;;;;;;4878345;29;20044;-75
2022/02/24 01:58:07;;;;;;;5.38;1.70;;;;;;;;;;4867972;29;20037;-74
2022/02/24 02:00:34;;;;;;;7.40;1.98;;;;;;;;;;4859813;29;20837;-76
2022/02/24 02:02:59;;;;;;;6.75;2.10;;;;;;;;;;4860220;29;20456;-75
2022/02/24 02:05:26;;;;;;;7.32;2.13;;;;;;;;;;4864483;29;20041;-74
2022/02/24 02:07:52;;;;;;;10.05;3.00;;;;;;;;;;4861548;29;20038;-75
2022/02/24 02:10:18;;;;;;;8.68;3.22;;;;;;;;;;4862335;29;20080;-75
2022/02/24 02:12:48;;;;;;;10.30;4.65;;;;;;;;;;4875024;29;20141;-75
2022/02/24 02:15:14;;;;;;;10.57;4.82;;;;;;;;;;4860446;29;20037;-76
2022/02/24 02:17:40;;;;;;;11.60;4.55;;;;;;;;;;4869306;29;20045;-75
2022/02/24 02:20:06;;;;;;;10.93;3.83;;;;;;;;;;4859582;29;20106;-74
2022/02/24 02:22:32;;;;;;;14.45;4.20;;;;;;;;;;4859709;29;20116;-76
2022/02/24 02:24:59;;;;;;;18.42;6.90;;;;;;;;;;4859816;29;20060;-75
2022/02/24 02:27:25;;;;;;;20.77;9.07;;;;;;;;;;4874553;29;20412;-75
2022/02/24 02:29:51;;;;;;;19.30;8.82;;;;;;;;;;4865641;29;20108;-75
2022/02/24 02:32:17;;;;;;;12.73;6.43;;;;;;;;;;4858801;29;20045;-75
2022/02/24 02:34:43;;;;;;;17.35;6.28;;;;;;;;;;4859142;29;20037;-75
2022/02/24 02:37:09;;;;;;;12.05;4.15;;;;;;;;;;4868876;29;20073;-75
2022/02/24 02:39:35;;;;;;;8.90;3.95;;;;;;;;;;4877728;29;20053;-75
2022/02/24 02:42:01;;;;;;;12.02;3.25;;;;;;;;;;4876547;29;20141;-75
2022/02/24 02:44:27;;;;;;;10.10;2.40;;;;;;;;;;4859085;29;20025;-76
2022/02/24 02:46:53;;;;;;;7.03;2.10;;;;;;;;;;4862939;29;20094;-75
2022/02/24 02:49:19;;;;;;;7.75;2.35;;;;;;;;;;4859092;29;20134;-75
2022/02/24 02:51:45;;;;;;;6.45;1.83;;;;;;;;;;4861300;29;20049;-75
2022/02/24 02:54:11;;;;;;;7.03;1.63;;;;;;;;;;4866181;29;20581;-76
2022/02/24 02:56:37;;;;;;;4.78;1.52;;;;;;;;;;4858189;29;20672;-76
2022/02/24 02:59:03;;;;;;;6.20;1.38;;;;;;;;;;4877531;29;20175;-76
2022/02/24 03:01:29;;;;;;;8.68;2.63;;;;;;;;;;4871641;29;20041;-76
2022/02/24 03:03:55;;;;;;;4.43;1.48;;;;;;;;;;4874422;29;20391;-76
2022/02/24 03:06:21;;;;;;;6.70;1.83;;;;;;;;;;4873826;29;20050;-76
2022/02/24 03:08:47;;;;;;;8.20;2.40;;;;;;;;;;4858683;29;20037;-76
2022/02/24 03:11:13;;;;;;;7.10;2.55;;;;;;;;;;4858784;29;20160;-76
2022/02/24 03:13:39;;;;;;;6.15;2.15;;;;;;;;;;4868175;29;20407;-76
2022/02/24 03:16:05;;;;;;;7.15;2.20;;;;;;;;;;4874966;29;20489;-76
2022/02/24 03:18:31;;;;;;;8.07;3.00;;;;;;;;;;4859746;29;20037;-76
2022/02/24 03:20:57;;;;;;;6.93;2.10;;;;;;;;;;4858464;29;20407;-76
2022/02/24 03:23:23;;;;;;;7.45;2.20;;;;;;;;;;4864142;29;20126;-76
2022/02/24 03:25:49;;;;;;;7.55;2.40;;;;;;;;;;4865422;29;20211;-76
2022/02/24 03:28:16;;;;;;;7.22;2.80;;;;;;;;;;4870563;29;20518;-76
2022/02/24 03:30:42;;;;;;;4.35;1.73;;;;;;;;;;4867427;29;20033;-75
2022/02/24 03:33:08;;;;;;;7.65;2.40;;;;;;;;;;4859364;29;20033;-75
2022/02/24 03:35:34;;;;;;;6.88;2.75;;;;;;;;;;4869923;29;20037;-76
2022/02/24 03:38:00;;;;;;;6.88;2.83;;;;;;;;;;4858297;29;20089;-75
2022/02/24 03:40:27;;;;;;;8.02;2.30;;;;;;;;;;4869960;29;20054;-75
2022/02/24 03:42:53;;;;;;;11.20;5.05;;;;;;;;;;4876989;29;20037;-75
2022/02/24 03:45:19;;;;;;;6.10;3.47;;;;;;;;;;4876437;29;20051;-75
2022/02/24 03:47:45;;;;;;;5.75;2.15;;;;;;;;;;4877114;29;20801;-75
2022/02/24 03:50:13;;;;;;;8.38;2.38;;;;;;;;;;4863324;29;20853;-75
2022/02/24 03:52:39;;;;;;;7.93;3.00;;;;;;;;;;4858339;29;20057;-75
2022/02/24 03:55:05;;;;;;;10.07;2.95;;;;;;;;;;4868139;29;20033;-75
2022/02/24 03:57:31;;;;;;;8.80;3.00;;;;;;;;;;4876861;29;20047;-75
2022/02/24 03:59:57;;;;;;;14.07;4.25;;;;;;;;;;4862332;29;20037;-75
2022/02/24 04:02:23;;;;;;;11.95;5.00;;;;;;;;;;4858063;29;20033;-75
2022/02/24 04:04:49;;;;;;;8.20;2.97;;;;;;;;;;4857482;29;20453;-75
2022/02/24 04:07:15;;;;;;;7.15;1.80;;;;;;;;;;4857276;29;20121;-75
2022/02/24 04:09:41;;;;;;;7.93;2.67;;;;;;;;;;4860677;29;20040;-75
2022/02/24 04:12:07;;;;;;;7.63;3.50;;;;;;;;;;4876719;29;20036;-76
2022/02/24 04:14:33;;;;;;;9.73;3.10;;;;;;;;;;4869368;29;20037;-75
2022/02/24 04:16:59;;;;;;;11.32;3.55;;;;;;;;;;4861155;29;20101;-76
2022/02/24 04:19:26;;;;;;;6.93;1.58;;;;;;;;;;4861311;29;20038;-75
2022/02/24 04:21:52;;;;;;;4.43;1.50;;;;;;;;;;4858665;29;20124;-76
2022/02/24 04:24:18;;;;;;;5.28;1.90;;;;;;;;;;4857937;29;20091;-76
2022/02/24 04:26:44;;;;;;;4.13;1.55;;;;;;;;;;4858040;29;20053;-75
2022/02/24 04:29:10;;;;;;;8.35;3.05;;;;;;;;;;4857807;29;20395;-75
2022/02/24 04:31:36;;;;;;;8.90;2.38;;;;;;;;;;4857519;29;20045;-76
2022/02/24 04:34:02;;;;;;;6.35;2.20;;;;;;;;;;4857608;29;20543;-76
2022/02/24 04:36:28;;;;;;;7.00;1.92;;;;;;;;;;4857271;29;20047;-76
2022/02/24 04:38:54;;;;;;;12.20;6.13;;;;;;;;;;4858188;29;20067;-75
2022/02/24 04:41:20;;;;;;;5.68;2.05;;;;;;;;;;4860863;29;20391;-76
2022/02/24 04:43:46;;;;;;;3.65;1.27;;;;;;;;;;4857779;29;20676;-76
2022/02/24 04:46:12;;;;;;;5.97;1.80;;;;;;;;;;4862710;29;20068;-76
2022/02/24 04:48:38;;;;;;;4.88;1.73;;;;;;;;;;4876779;29;20128;-77
2022/02/24 04:51:04;;;;;;;6.70;2.15;;;;;;;;;;4873700;29;20041;-76
2022/02/24 04:53:30;;;;;;;13.10;4.50;;;;;;;;;;4861191;29;20047;-76
2022/02/24 04:55:56;;;;;;;11.70;4.35;;;;;;;;;;4857129;29;20041;-76
2022/02/24 04:58:22;;;;;;;9.45;3.10;;;;;;;;;;4857416;29;20108;-75
2022/02/24 05:00:48;;;;;;;6.82;2.05;;;;;;;;;;4857035;29;20030;-75
2022/02/24 05:03:15;;;;;;;7.13;2.60;;;;;;;;;;4857409;29;20041;-76
2022/02/24 05:05:42;;;;;;;6.10;2.50;;;;;;;;;;4857272;29;20030;-76
2022/02/24 05:08:09;;;;;;;8.38;3.15;;;;;;;;;;4858010;29;20029;-76
2022/02/24 05:10:35;;;;;;;8.90;3.25;;;;;;;;;;4865658;29;20036;-76
2022/02/24 05:13:01;;;;;;;9.85;4.70;;;;;;;;;;4859344;29;20050;-76
2022/02/24 05:15:27;;;;;;;20.02;8.45;;;;;;;;;;4859228;29;20067;-76
2022/02/24 05:17:53;;;;;;;13.48;4.63;;;;;;;;;;4858025;29;20034;-76
2022/02/24 05:20:19;;;;;;;16.30;8.20;;;;;;;;;;4869440;29;20033;-76
2022/02/24 05:22:45;;;;;;;17.58;8.10;;;;;;;;;;4860986;29;20381;-76
2022/02/24 05:25:12;;;;;;;10.93;4.05;;;;;;;;;;4860639;29;20038;-77
2022/02/24 05:27:40;;;;;;;14.63;6.85;;;;;;;;;;4872609;29;20045;-77
2022/02/24 05:30:07;;;;;;;13.32;3.88;;;;;;;;;;4861803;29;20745;-77
2022/02/24 05:32:33;;;;;;;9.10;2.83;;;;;;;;;;4879241;29;20579;-77
2022/02/24 05:34:59;;;;;;;9.85;3.00;;;;;;;;;;4862605;29;20116;-77
2022/02/24 05:37:26;;;;;;;10.60;3.90;;;;;;;;;;4860265;29;20060;-77
2022/02/24 05:39:55;;;;;;;12.50;5.45;;;;;;;;;;4860934;29;20555;-77
2022/02/24 05:42:21;;;;;;;14.95;7.95;;;;;;;;;;4860790;29;20045;-77
2022/02/24 05:44:48;;;;;;;18.02;7.20;;;;;;;;;;4860603;29;20101;-77
2022/02/24 05:47:14;;;;;;;13.20;5.75;;;;;;;;;;4859863;29;20037;-78
2022/02/24 05:49:40;;;;;;;10.98;4.72;;;;;;;;;;4860767;29;20037;-77
2022/02/24 05:52:06;;;;;;;13.27;4.78;;;;;;;;;;4864205;29;20049;-78
2022/02/24 05:54:32;;;;;;;11.50;4.20;;;;;;;;;;4869859;29;20566;-78
2022/02/24 05:56:59;;;;;;;9.65;3.95;;;;;;;;;;4860258;29;20049;-77
2022/02/24 05:59:25;;;;;;;10.68;4.35;;;;;;;;;;4860199;29;20040;-77
2022/02/24 06:01:51;;;;;;;10.10;4.18;;;;;;;;;;4862762;29;20037;-77
2022/02/24 06:04:18;;;;;;;8.75;3.92;;;;;;;;;;4860046;29;20029;-77
2022/02/24 06:06:44;;;;;;;12.07;3.70;;;;;;;;;;4860240;29;20041;-77
2022/02/24 06:09:10;;;;;;;10.07;4.53;;;;;;;;;;4860232;29;20040;-77
2022/02/24 06:11:36;;;;;;;12.52;4.47;;;;;;;;;;4866288;29;20502;-78
2022/02/24 06:14:02;;;;;;;11.63;4.68;;;;;;;;;;4865579;29;20112;-77
2022/02/24 06:16:28;;;;;;;9.80;4.40;;;;;;;;;;4869307;29;20141;-78
2022/02/24 06:18:54;;;;;;;10.20;4.45;;;;;;;;;;4872038;29;20091;-78
2022/02/24 06:21:20;;;;;;;10.32;3.60;;;;;;;;;;4843293;29;20370;-77
2022/02/24 06:23:46;;;;;;;14.95;4.38;;;;;;;;;;4863925;29;20048;-77
2022/02/24 06:26:13;;;;;;;10.32;3.63;;;;;;;;;;4863321;29;20508;-78
2022/02/24 06:28:39;;;;;;;9.13;3.78;;;;;;;;;;4861081;29;20122;-78
2022/02/24 06:31:05;;;;;;;13.95;4.78;;;;;;;;;;4862464;29;20068;-77
2022/02/24 06:33:31;;;;;;;22.80;7.85;;;;;;;;;;4874095;29;20101;-77
2022/02/24 06:35:57;;;;;;;19.20;7.75;;;;;;;;;;4861499;29;20036;-77
2022/02/24 06:38:23;;;;;;;21.88;7.75;;;;;;;;;;4862892;29;20049;-77
2022/02/24 06:40:49;;;;;;;18.92;7.03;;;;;;;;;;4871876;29;20037;-77
2022/02/24 06:43:15;;;;;;;15.38;5.97;;;;;;;;;;4866774;29;20038;-77
2022/02/24 06:45:41;;;;;;;16.13;7.50;;;;;;;;;;4873431;29;20448;-77
2022/02/24 06:48:07;;;;;;;18.77;7.38;;;;;;;;;;4864969;29;20048;-77
2022/02/24 06:50:33;;;;;;;25.02;8.15;;;;;;;;;;4859478;29;20089;-78
2022/02/24 06:52:59;;;;;;;22.42;8.77;;;;;;;;;;4862074;29;20068;-78
2022/02/24 06:55:25;;;;;;;22.48;8.57;;;;;;;;;;4870100;29;20468;-78
2022/02/24 06:57:54;;;;;;;42.58;19.52;;;;;;;;;;4870464;29;20079;-77
2022/02/24 07:03:26;;;;;;;51.15;19.80;;;;;;;;;;4863816;29;20038;-77
2022/02/24 07:05:52;;;;;;;59.50;21.23;;;;;;;;;;4863852;29;20080;-77
2022/02/24 07:08:18;;;;;;;43.30;17.25;;;;;;;;;;4861573;29;20037;-77
2022/02/24 07:10:44;;;;;;;45.92;20.70;;;;;;;;;;4861412;29;20081;-78
2022/02/24 07:13:10;;;;;;;49.42;22.05;;;;;;;;;;4869746;29;20506;-77
2022/02/24 07:15:36;;;;;;;39.25;17.70;;;;;;;;;;4868422;29;20064;-78
2022/02/24 07:18:02;;;;;;;31.65;11.15;;;;;;;;;;4862806;29;20041;-77
2022/02/24 07:20:28;;;;;;;23.73;8.18;;;;;;;;;;4863190;29;20036;-77
2022/02/24 07:22:54;;;;;;;39.78;16.35;;;;;;;;;;4868299;29;20037;-77
2022/02/24 07:25:20;;;;;;;32.88;13.20;;;;;;;;;;4865388;29;20394;-78
2022/02/24 07:27:47;;;;;;;22.98;7.85;;;;;;;;;;4864045;29;20041;-77
2022/02/24 07:30:13;;;;;;;27.48;11.80;;;;;;;;;;4865098;29;20715;-78
2022/02/24 07:32:40;;;;;;;36.17;13.57;;;;;;;;;;4869837;29;20695;-77
2022/02/24 07:35:06;;;;;;;44.50;15.68;;;;;;;;;;4873380;29;20387;-78
2022/02/24 07:37:32;;;;;;;55.92;17.15;;;;;;;;;;4865401;29;20093;-77
2022/02/24 07:39:58;;;;;;;48.75;15.32;;;;;;;;;;4867520;29;20108;-78
2022/02/24 07:42:24;;;;;;;45.25;14.82;;;;;;;;;;4865020;29;20527;-77
2022/02/24 07:44:50;;;;;;;36.53;12.13;;;;;;;;;;4862579;29;20080;-78
2022/02/24 07:47:16;;;;;;;37.13;10.57;;;;;;;;;;4864453;29;20060;-77
2022/02/24 07:49:43;;;;;;;33.67;11.15;;;;;;;;;;4861712;29;20044;-77
2022/02/24 07:52:09;;;;;;;26.42;10.05;;;;;;;;;;4863885;29;20052;-78
2022/02/24 07:54:35;;;;;;;25.65;11.20;;;;;;;;;;4861962;29;20033;-78
2022/02/24 07:57:01;;;;;;;32.85;10.40;;;;;;;;;;4865064;29;20052;-77
2022/02/24 07:59:27;;;;;;;23.95;8.85;;;;;;;;;;4860997;29;20033;-78
2022/02/24 08:01:53;;;;;;;27.52;8.93;;;;;;;;;;4865594;29;20045;-78
2022/02/24 08:04:19;;;;;;;21.23;7.53;;;;;;;;;;4859909;29;20112;-78
2022/02/24 08:06:45;;;;;;;22.52;7.65;;;;;;;;;;4862354;29;20048;-77
2022/02/24 08:09:12;;;;;;;23.40;7.15;;;;;;;;;;4859736;29;20086;-77
2022/02/24 08:11:38;;;;;;;22.95;7.97;;;;;;;;;;4867759;29;20148;-77
2022/02/24 08:14:04;;;;;;;25.80;6.82;;;;;;;;;;4864881;29;20045;-78
2022/02/24 08:16:30;;;;;;;16.27;5.75;;;;;;;;;;4860570;29;20052;-77
2022/02/24 08:18:56;;;;;;;15.40;5.68;;;;;;;;;;4861013;29;20029;-78
2022/02/24 08:21:23;;;;;;;15.88;5.50;;;;;;;;;;4860133;29;20042;-78
2022/02/24 08:23:50;;;;;;;14.30;5.25;;;;;;;;;;4862083;29;20493;-77
2022/02/24 08:26:16;;;;;;;20.30;5.68;;;;;;;;;;4861566;29;20081;-79
2022/02/24 08:28:42;;;;;;;21.05;7.10;;;;;;;;;;4869937;29;20033;-79
2022/02/24 08:31:08;;;;;;;23.58;8.15;;;;;;;;;;4862531;29;20045;-79
2022/02/24 08:33:34;;;;;;;17.25;6.50;;;;;;;;;;4851593;29;20037;-79
2022/02/24 08:36:00;;;;;;;19.27;7.15;;;;;;;;;;4861892;29;20049;-79
2022/02/24 08:38:26;;;;;;;21.55;7.28;;;;;;;;;;4862303;29;20060;-78
2022/02/24 08:40:52;;;;;;;28.20;7.65;;;;;;;;;;4861527;29;20502;-79
2022/02/24 08:43:20;;;;;;;18.92;7.03;;;;;;;;;;4863539;29;20040;-78
2022/02/24 08:45:46;;;;;;;22.02;7.60;;;;;;;;;;4866894;29;20036;-78
2022/02/24 08:48:12;;;;;;;21.50;6.90;;;;;;;;;;4866041;29;20831;-79
2022/02/24 08:50:39;;;;;;;13.80;5.78;;;;;;;;;;4867923;29;20777;-78
2022/02/24 08:53:06;;;;;;;17.50;5.50;;;;;;;;;;4871331;29;20044;-79
2022/02/24 08:55:32;;;;;;;15.27;5.60;;;;;;;;;;4872772;29;20152;-79
2022/02/24 08:57:58;;;;;;;12.15;5.88;;;;;;;;;;4868881;29;20069;-78
2022/02/24 09:00:24;;;;;;;13.88;5.10;;;;;;;;;;4868836;29;20040;-77
2022/02/24 09:02:50;;;;;;;13.93;4.65;;;;;;;;;;4868823;29;20045;-78
2022/02/24 09:05:16;;;;;;;10.05;4.35;;;;;;;;;;4871963;29;20033;-78
2022/02/24 09:07:42;;;;;;;11.25;5.18;;;;;;;;;;4872237;29;20041;-78
2022/02/24 09:10:10;;;;;;;17.98;4.30;;;;;;;;;;4869429;29;20864;-79
2022/02/24 09:12:36;;;;;;;10.15;4.55;;;;;;;;;;4869661;29;20128;-79
2022/02/24 09:15:02;;;;;;;10.27;2.83;;;;;;;;;;4863062;29;20116;-79
2022/02/24 09:17:28;;;;;;;12.45;3.03;;;;;;;;;;4868415;29;20034;-79
2022/02/24 09:19:55;;;;;;;7.80;2.63;;;;;;;;;;4866260;29;20383;-79
2022/02/24 09:22:21;;;;;;;6.53;2.47;;;;;;;;;;4865541;29;20784;-79
2022/02/24 09:24:47;;;;;;;8.25;2.63;;;;;;;;;;4869345;29;20045;-79
2022/02/24 09:27:13;;;;;;;8.25;2.72;;;;;;;;;;4872585;29;20579;-76
2022/02/24 09:29:39;;;;;;;8.48;2.90;;;;;;;;;;4865042;29;20136;-78
2022/02/24 09:32:06;;;;;;;10.93;3.13;;;;;;;;;;4867534;29;20052;-79
2022/02/24 09:34:32;;;;;;;12.98;3.42;;;;;;;;;;4868822;29;20044;-79
2022/02/24 09:36:59;;;;;;;14.13;4.15;;;;;;;;;;4864293;29;20046;-80
2022/02/24 09:39:25;;;;;;;9.52;3.47;;;;;;;;;;4871420;29;20025;-79
2022/02/24 09:41:51;;;;;;;10.93;3.00;;;;;;;;;;4866504;29;20053;-80
2022/02/24 09:44:17;;;;;;;13.50;3.05;;;;;;;;;;4852895;29;20436;-79
2022/02/24 09:46:43;;;;;;;10.77;2.22;;;;;;;;;;4861543;29;20121;-79
2022/02/24 09:49:10;;;;;;;9.93;2.40;;;;;;;;;;4846811;29;20121;-80
2022/02/24 09:51:36;;;;;;;10.20;2.80;;;;;;;;;;4863961;29;20044;-80
2022/02/24 09:54:03;;;;;;;11.13;2.97;;;;;;;;;;4864928;29;20044;-79
2022/02/24 09:56:29;;;;;;;8.25;2.75;;;;;;;;;;4861735;29;20033;-80
2022/02/24 09:58:56;;;;;;;14.02;2.70;;;;;;;;;;4864498;29;20747;-80
2022/02/24 10:01:23;;;;;;;12.07;2.70;;;;;;;;;;4865948;29;20037;-79
2022/02/24 10:03:57;;;;;;;11.27;2.60;;;;;;;;;;4867070;29;20522;-79
2022/02/24 10:06:32;;;;;;;10.68;2.72;;;;;;;;;;4866633;29;20048;-79
2022/02/24 10:08:58;;;;;;;6.00;1.90;;;;;;;;;;4863359;29;20041;-80
2022/02/24 10:11:28;;;;;;;13.55;2.97;;;;;;;;;;4861153;29;20049;-79
2022/02/24 10:14:01;;;;;;;10.65;2.85;;;;;;;;;;4863524;29;20086;-79
2022/02/24 10:16:28;;;;;;;10.45;2.50;;;;;;;;;;4846956;29;20041;-80
2022/02/24 10:18:55;;;;;;;14.45;3.10;;;;;;;;;;4864573;29;20040;-80
2022/02/24 10:21:21;;;;;;;20.35;3.30;;;;;;;;;;4846136;29;20073;-80
2022/02/24 10:23:48;;;;;;;12.45;3.10;;;;;;;;;;4861328;29;20406;-79
2022/02/24 10:26:15;;;;;;;10.70;3.08;;;;;;;;;;4870911;29;20395;-79
2022/02/24 10:28:45;;;;;;;13.07;2.90;;;;;;;;;;4863025;29;20436;-80
2022/02/24 10:31:15;;;;;;;15.75;3.28;;;;;;;;;;4866684;29;20165;-79
2022/02/24 10:33:43;;;;;;;10.95;2.97;;;;;;;;;;4869279;29;20107;-79
2022/02/24 10:36:10;;;;;;;13.65;3.05;;;;;;;;;;4862863;29;20056;-80
2022/02/24 10:38:36;;;;;;;11.27;2.20;;;;;;;;;;4837982;29;20052;-80
2022/02/24 10:41:02;;;;;;;14.75;2.90;;;;;;;;;;4848184;29;20061;-80
2022/02/24 10:43:31;;;;;;;13.00;2.80;;;;;;;;;;4847952;29;20033;-80
2022/02/24 10:46:01;;;;;;;17.20;2.53;;;;;;;;;;4845688;29;20049;-79
2022/02/24 10:48:27;;;;;;;16.50;2.60;;;;;;;;;;4846889;29;20029;-79
2022/02/24 10:50:55;;;;;;;11.60;2.30;;;;;;;;;;4844405;29;20408;-79
2022/02/24 10:53:22;;;;;;;10.40;2.25;;;;;;;;;;4835345;29;20562;-79
2022/02/24 10:55:59;;;;;;;11.60;2.63;;;;;;;;;;4846841;29;20140;-79
2022/02/24 10:58:25;;;;;;;8.82;2.08;;;;;;;;;;4850177;29;20028;-80
2022/02/24 11:01:10;;;;;;;11.10;3.03;;;;;;;;;;4848161;29;20045;-79
2022/02/24 11:03:37;;;;;;;13.50;2.55;;;;;;;;;;4838104;29;20080;-80
2022/02/24 11:06:05;;;;;;;11.60;2.13;;;;;;;;;;4847128;29;20117;-79
2022/02/24 11:08:31;;;;;;;11.38;2.63;;;;;;;;;;4849682;29;20105;-80
2022/02/24 11:10:59;;;;;;;12.18;2.13;;;;;;;;;;4842167;29;20045;-79
2022/02/24 11:13:25;;;;;;;9.52;2.08;;;;;;;;;;4846066;29;20026;-79
2022/02/24 11:15:51;;;;;;;13.60;2.42;;;;;;;;;;4845776;29;20037;-78
2022/02/24 11:18:18;;;;;;;8.60;2.28;;;;;;;;;;4851229;29;20034;-79
2022/02/24 11:20:44;;;;;;;13.18;1.92;;;;;;;;;;4847093;29;20158;-79
2022/02/24 11:23:10;;;;;;;14.75;2.30;;;;;;;;;;4833229;29;20137;-80
2022/02/24 11:25:42;;;;;;;13.50;2.58;;;;;;;;;;4853024;29;20033;-79
2022/02/24 11:28:11;;;;;;;16.90;2.20;;;;;;;;;;4852932;29;20056;-80
2022/02/24 11:30:39;;;;;;;10.18;2.25;;;;;;;;;;4848535;29;20408;-80
2022/02/24 11:33:05;;;;;;;13.50;2.30;;;;;;;;;;4844543;29;20030;-80
2022/02/24 11:35:32;;;;;;;14.45;2.53;;;;;;;;;;4839455;29;20038;-79
2022/02/24 11:38:07;;;;;;;16.30;2.97;;;;;;;;;;4848357;29;20050;-79
2022/02/24 11:40:36;;;;;;;12.40;2.17;;;;;;;;;;4862817;29;20037;-79
2022/02/24 11:43:22;;;;;;;16.10;2.72;;;;;;;;;;4861443;29;20038;-79
2022/02/24 11:45:56;;;;;;;14.05;2.40;;;;;;;;;;4861457;29;20033;-80
2022/02/24 11:48:23;;;;;;;12.20;2.17;;;;;;;;;;4868806;29;20054;-81
2022/02/24 11:50:55;;;;;;;13.27;2.65;;;;;;;;;;4870645;29;20037;-80
2022/02/24 11:53:27;;;;;;;11.85;2.30;;;;;;;;;;4863081;29;20036;-80
2022/02/24 11:55:53;;;;;;;;;;;;;;;;;;4864582;29;20041;-80
2022/02/24 11:58:34;;;;;;;11.68;1.92;;;;;;;;;;4856516;29;19923;-80
2022/02/24 12:01:19;;;;;;;12.63;2.25;;;;;;;;;;4862376;29;20042;-80
2022/02/24 12:03:48;;;;;;;13.98;1.92;;;;;;;;;;4862742;29;20077;-80
2022/02/24 12:06:17;;;;;;;8.27;2.20;;;;;;;;;;4867804;29;20082;-80
2022/02/24 12:09:02;;;;;;;13.35;2.45;;;;;;;;;;4863921;29;20032;-80
2022/02/24 12:11:29;;;;;;;12.10;2.35;;;;;;;;;;4857007;29;20081;-80
2022/02/24 12:13:55;;;;;;;15.88;1.77;;;;;;;;;;4864698;29;20067;-80
2022/02/24 12:16:24;;;;;;;14.88;3.30;;;;;;;;;;4859280;29;20049;-80
2022/02/24 12:18:51;;;;;;;18.33;3.95;;;;;;;;;;4871184;29;20633;-80
2022/02/24 12:21:36;;;;;;;12.30;2.47;;;;;;;;;;4861240;29;20495;-80
2022/02/24 12:24:06;;;;;;;13.70;2.65;;;;;;;;;;4866244;29;20041;-77
2022/02/24 12:26:37;;;;;;;16.33;2.08;;;;;;;;;;4866400;29;20038;-80
2022/02/24 12:29:28;;;;;;;17.25;2.42;;;;;;;;;;4862674;29;20044;-80
2022/02/24 12:31:57;;;;;;;10.68;2.40;;;;;;;;;;4860526;29;20040;-80
2022/02/24 12:34:24;;;;;;;12.35;2.92;;;;;;;;;;4868962;29;20037;-80
2022/02/24 12:36:50;;;;;;;15.18;2.88;;;;;;;;;;4863465;29;20045;-80
2022/02/24 12:39:16;;;;;;;18.83;3.72;;;;;;;;;;4865737;29;20045;-80
2022/02/24 12:41:43;;;;;;;14.20;2.75;;;;;;;;;;4862922;29;20038;-80
2022/02/24 12:44:25;;;;;;;9.90;1.58;;;;;;;;;;4858675;29;20426;-80
2022/02/24 12:46:51;;;;;;;13.82;1.75;;;;;;;;;;4863951;29;20037;-80
2022/02/24 12:49:17;;;;;;;11.75;1.92;;;;;;;;;;4861833;29;20042;-79
2022/02/24 12:51:43;;;;;;;11.55;2.17;;;;;;;;;;4863505;29;20041;-80
2022/02/24 12:54:13;;;;;;;14.02;2.97;;;;;;;;;;4865000;29;20041;-79
2022/02/24 12:56:39;;;;;;;10.77;1.73;;;;;;;;;;4861536;29;20069;-80
2022/02/24 12:59:12;;;;;;;12.02;1.90;;;;;;;;;;4858528;29;20108;-80
2022/02/24 13:01:41;;;;;;;10.65;1.83;;;;;;;;;;4860234;29;20037;-80
2022/02/24 13:04:17;;;;;;;11.75;1.90;;;;;;;;;;4862081;29;20057;-80
2022/02/24 13:06:45;;;;;;;13.32;2.10;;;;;;;;;;4874524;29;20049;-80
2022/02/24 13:12:06;;;;;;;12.20;2.10;;;;;;;;;;4858378;29;20093;-80
2022/02/24 13:14:33;;;;;;;15.20;2.38;;;;;;;;;;4858953;29;20048;-80
2022/02/24 13:16:59;;;;;;;13.52;2.00;;;;;;;;;;4861237;29;20046;-80
2022/02/24 13:19:26;;;;;;;11.95;2.38;;;;;;;;;;4860047;29;20034;-80
2022/02/24 13:21:54;;;;;;;12.50;1.98;;;;;;;;;;4843274;29;20041;-80
2022/02/24 13:24:27;;;;;;;11.93;2.03;;;;;;;;;;4843369;29;20041;-80
2022/02/24 13:26:53;;;;;;;11.65;1.83;;;;;;;;;;4864188;29;20042;-80
2022/02/24 13:29:20;;;;;;;12.05;2.55;;;;;;;;;;4861158;29;20044;-80
2022/02/24 13:31:47;;;;;;;9.52;2.28;;;;;;;;;;4863807;29;20057;-80
2022/02/24 13:34:14;;;;;;;11.27;1.40;;;;;;;;;;4860656;29;20041;-80
2022/02/24 13:36:40;;;;;;;11.95;1.70;;;;;;;;;;4863554;29;20060;-81
2022/02/24 13:39:06;;;;;;;9.10;1.77;;;;;;;;;;4860296;29;20088;-80
2022/02/24 13:41:32;;;;;;;10.45;1.70;;;;;;;;;;4864407;29;20612;-80
2022/02/24 13:43:59;;;;;;;13.20;2.35;;;;;;;;;;4860094;29;20058;-80
2022/02/24 13:46:39;;;;;;;8.27;1.40;;;;;;;;;;4871038;29;20037;-80
2022/02/24 13:49:09;;;;;;;11.55;2.03;;;;;;;;;;4859233;29;20048;-80
2022/02/24 13:51:36;;;;;;;12.13;2.38;;;;;;;;;;4850057;29;20698;-79
2022/02/24 13:54:03;;;;;;;9.43;1.40;;;;;;;;;;4861200;29;20453;-80
2022/02/24 13:56:29;;;;;;;9.70;2.40;;;;;;;;;;4868516;29;20676;-80
2022/02/24 13:58:59;;;;;;;13.70;2.28;;;;;;;;;;4872372;29;20095;-80
2022/02/24 14:01:25;;;;;;;10.85;1.65;;;;;;;;;;4871886;29;20038;-80
2022/02/24 14:03:52;;;;;;;11.00;1.80;;;;;;;;;;4867405;29;20200;-80
2022/02/24 14:06:22;;;;;;;12.88;1.90;;;;;;;;;;4866021;29;20068;-80
2022/02/24 14:08:49;;;;;;;9.25;1.98;;;;;;;;;;4875868;29;20049;-80
2022/02/24 14:11:24;;;;;;;15.07;2.22;;;;;;;;;;4867350;29;20029;-80
2022/02/24 14:13:50;;;;;;;7.75;1.48;;;;;;;;;;4850891;29;20052;-81
2022/02/24 14:16:18;;;;;;;11.90;2.00;;;;;;;;;;4867542;29;20040;-80
2022/02/24 14:18:44;;;;;;;10.88;2.00;;;;;;;;;;4862261;29;20038;-80
2022/02/24 14:21:10;;;;;;;10.30;1.73;;;;;;;;;;4860365;29;20034;-80
2022/02/24 14:23:37;;;;;;;21.77;2.85;;;;;;;;;;4868615;29;20041;-80
2022/02/24 14:26:03;;;;;;;11.43;1.70;;;;;;;;;;4864768;29;20038;-80
2022/02/24 14:28:29;;;;;;;12.65;1.80;;;;;;;;;;4848428;29;20069;-80
2022/02/24 14:30:55;;;;;;;11.23;2.15;;;;;;;;;;4864537;29;20069;-80
2022/02/24 14:33:21;;;;;;;7.65;1.63;;;;;;;;;;4863646;29;20041;-80
2022/02/24 14:35:48;;;;;;;8.10;1.60;;;;;;;;;;4863117;29;20029;-80
2022/02/24 14:38:16;;;;;;;11.40;1.58;;;;;;;;;;4870724;29;20063;-80